Grizzly Air Cargo 5372


PACD
Cold Bay Airport
Cold Bay, Alaska, US
PADU
Unalaska Airport
Unalaska, Alaska, US

Activity Log

Date Flight Route Aircraft Duration
No Flights Yet

Route Details

Aircraft Information
Primary: Saab 340AF
Backup: Not Available
Route Data
Distance: 169nm
Sched. Duration: 0h 70m
Avg. Duration: 0h 00m (-70m)
Times Flown: 0
Recm'd Route: CDB J115 DUT
Planned Altitude: 18,000ft
Origin Wx: PACD 051453Z AUTO 30007KT 10SM BKN018 OVC023 07/04 A3024 RMK AO2 SLP240 T00670039 58007 TSNO
Dest. Wx: PADU 051456Z 18005KT 10SM FEW020 BKN150 06/03 A3029 RMK AO2 SLP261 T00610028 56010
Notes:

Financial History
Total Freight: 0lbs
Average Load: 0lbs/flt
Fuel Used: 0lbs
Avg. Fuel Used: 0lbs/flt
Fuel Expense: $0
Avg. Fuel Expense: $0
Avg. Fuel Cost: $0/lbs
Total Gross Income: $0
Pilot Pay: $0
Total Expenses: $0
Total Revenue: $0
Average Revenue: $0